• Join FlightAware (Why Join?)
  • Login
  • US Flag 
05:43PM EDT


 

Airport Tracker/Info


-or-


 

Live Flight TrackerFlight Track Log ✈ N934PC ✈ 21-Oct-2013 ✈ KAPF - KLUK

Flight Track Log - Related Links

Times and Time Zones

All times are in EDT time to prevent confusion due to time zone crossing. See the N934PC flight status page for this flight to view local times or setup timezone preferences in your user account.

Time Position Orientation Groundspeed Altitude Reporting Facility
EDT Latitude Longitude Course Direction KTS MPH feet Rate Location/Type
09:44AM 26.4206 -81.8234 355° North  Level Estimated
09:45AM 26.4658 -81.8262 357° North  Level FlightAware Approximate
09:46AM 26.5109 -81.8291 357° North  Level FlightAware Approximate
09:47AM 26.5561 -81.8320 357° North  Level FlightAware Approximate
09:48AM 26.6013 -81.8348 357° North  Level FlightAware Approximate
09:49AM 26.6465 -81.8377 357° North  Level FlightAware Approximate
09:50AM 26.6917 -81.8406 357° North  Level FlightAware Approximate
09:51AM 26.7368 -81.8435 357° North  Level FlightAware Approximate
09:52AM 26.7820 -81.8463 357° North  Level FlightAware Approximate
09:53AM 26.8267 -81.8545 354° North  Level Estimated
09:54AM 26.8719 -81.8576 357° North  Level FlightAware Approximate
09:55AM 26.9170 -81.8606 357° North  Level FlightAware Approximate
09:55AM 26.5944 -81.7883 354° North 111 128 7,200  Level Miami Center
09:56AM 26.9622 -81.8637 357° North  Level FlightAware Approximate
09:56AM 26.6317 -81.7947 351° North 118 136 7,500  Level Miami Center
09:57AM 27.0069 -81.8719 352° North  Level Estimated
09:57AM 26.6628 -81.8006 350° North 123 142 7,900  Level Miami Center
09:58AM 27.0518 -81.8774 354° North  Level FlightAware Approximate
09:58AM 26.6981 -81.8114 345° North 132 152 8,000  Level Miami Center
09:59AM 27.0968 -81.8829 354° North  Level FlightAware Approximate
09:59AM 26.7394 -81.8178 352° North 148 170 8,000  Level Miami Center
10:00AM 27.1418 -81.8883 354° North  Level FlightAware Approximate
10:00AM 26.7833 -81.8197 358° North 160 184 8,000  Level Miami Center
10:01AM 26.8289 -81.8261 353° North 165 190 8,000  Level Miami Center
10:02AM 26.8789 -81.8331 353° North 165 190 8,000  Level Miami Center
10:03AM 26.9203 -81.8394 352° North 170 196 8,000  Level Miami Center
10:04AM 26.9661 -81.8483 350° North 170 196 8,000  Level Miami Center
10:05AM 27.0139 -81.8550 353° North 170 196 8,000  Level Miami Center
10:06AM 27.0594 -81.8639 350° North 165 190 8,000  Level Miami Center
10:07AM 27.1031 -81.8683 355° North 160 184 8,000  Level Miami Center
10:08AM 27.1467 -81.8772 350° North 160 184 8,000  Level Miami Center
10:09AM 27.1922 -81.8839 353° North 160 184 8,000  Level Miami Center
10:10AM 27.2339 -81.8903 352° North 160 184 8,000  Level Miami Center
10:11AM 27.2772 -81.8992 350° North 160 184 8,000  Level Miami Center
10:12AM 27.3208 -81.9058 352° North 160 184 8,000  Level Miami Center
10:13AM 27.3644 -81.9122 353° North 160 184 8,000  Level Miami Center
10:14AM 27.4103 -81.9189 353° North 160 184 8,000  Level Miami Center
10:15AM 27.4517 -81.9278 349° North 160 184 8,000  Level Miami Center
10:16AM 27.4975 -81.9322 355° North 160 184 8,000  Level Miami Center
10:17AM 27.5408 -81.9411 350° North 160 184 8,000  Level Miami Center
10:18AM 27.5806 -81.9428 358° North 160 184 8,000  Level Miami Center
10:19AM 27.6281 -81.9519 350° North 155 178 8,000  Level Miami Center
10:20AM 27.6717 -81.9586 352° North 155 178 8,000  Level Miami Center
10:21AM 27.7133 -81.9653 352° North 155 178 8,000  Level Miami Center
10:22AM 27.7506 -81.9717 351° North 155 178 8,000  Level Miami Center
10:23AM 27.7922 -81.9781 352° North 155 178 8,000  Level Miami Center
10:24AM 27.8378 -81.9872 350° North 163 188 8,000  Level Miami Center
10:25AM 27.8833 -81.9939 353° North 163 188 8,000  Level Miami Center
10:26AM 27.9269 -82.0031 349° North 163 188 8,000  Level Miami Center
10:27AM 27.9706 -82.0097 352° North 163 188 8,000  Level Miami Center
10:28AM 28.0161 -82.0189 350° North 163 188 8,000  Level Miami Center
10:29AM 28.0667 -82.0333 346° North 161 185 8,000  Level Tampa TRACON
10:30AM 28.1167 -82.0333 360° North 161 185 8,000  Level Tampa TRACON
10:31AM 28.1667 -82.0500 344° North 161 185 8,000  Level Tampa TRACON
10:32AM 28.2000 -82.0500 360° North 163 188 8,000  Level Tampa TRACON
10:33AM 28.2500 -82.0667 344° North 160 184 8,000  Level Tampa TRACON
10:34AM 28.3000 -82.0833 344° North 159 183 8,000  Level Tampa TRACON
10:35AM 28.3333 -82.0833 360° North 161 185 8,000  Level Tampa TRACON
10:36AM 28.3833 -82.1000 344° North 159 183 8,000  Level Tampa TRACON
10:37AM 28.4333 -82.1000 360° North 161 185 8,000  Level Tampa TRACON
10:38AM 28.4586 -82.1133 335° Northwest 159 183 8,000  Level Jacksonville Center
10:39AM 28.5025 -82.1225 350° North 161 185 8,000  Level Jacksonville Center
10:40AM 28.5442 -82.1317 349° North 163 188 8,000  Level Jacksonville Center
10:41AM 28.5881 -82.1408 350° North 163 188 8,000  Level Jacksonville Center
10:42AM 28.6319 -82.1522 347° North 162 186 8,000  Level Jacksonville Center
10:43AM 28.6758 -82.1592 352° North 163 188 8,000  Level Jacksonville Center
10:44AM 28.7239 -82.1706 348° North 161 185 8,000  Level Jacksonville Center
10:45AM 28.7697 -82.1797 350° North 160 184 8,000  Level Jacksonville Center
10:46AM 28.8117 -82.1889 349° North 162 186 8,000  Level Jacksonville Center
10:47AM 28.8575 -82.1981 350° North 163 188 8,000  Level Jacksonville Center
10:48AM 28.9036 -82.2047 353° North 162 186 8,000  Level Jacksonville Center
10:49AM 28.9494 -82.2186 345° North 163 188 8,000  Level Jacksonville Center
10:50AM 28.9975 -82.2278 351° North 162 186 8,000  Level Jacksonville Center
10:51AM 29.0414 -82.2347 352° North 160 184 8,000  Level Jacksonville Center
10:52AM 29.0894 -82.2461 348° North 158 182 8,000  Level Jacksonville Center
10:53AM 29.1292 -82.2578 346° North 155 178 8,000  Level Jacksonville Center
10:54AM 29.1772 -82.2647 353° North 155 178 8,000  Level Jacksonville Center
10:55AM 29.2233 -82.2739 350° North 157 181 8,000  Level Jacksonville Center
10:56AM 29.2650 -82.2831 349° North 157 181 8,000  Level Jacksonville Center
10:57AM 29.3047 -82.2925 348° North 156 180 8,000  Level Jacksonville Center
10:58AM 29.3486 -82.3017 350° North 155 178 8,000  Level Jacksonville Center
10:59AM 29.3906 -82.3111 349° North 154 177 8,000  Level Jacksonville Center
11:00AM 29.4322 -82.3181 352° North 154 177 8,000  Level Jacksonville Center
11:01AM 29.4739 -82.3272 349° North 154 177 8,000  Level Jacksonville Center
11:02AM 29.5158 -82.3364 349° North 156 180 8,000  Level Jacksonville Center
11:03AM 29.5639 -82.3483 348° North 155 178 8,000  Level Jacksonville Center
11:04AM 29.6036 -82.3553 351° North 155 178 8,000  Level Jacksonville Center
11:05AM 29.6475 -82.3644 350° North 155 178 8,000  Level Jacksonville Center
11:06AM 29.6789 -82.3692 353° North 156 180 8,000  Level Jacksonville Center
11:06AM 29.6975 -82.3761 342° North 158 182 8,000  Level Jacksonville Center
11:07AM 29.7228 -82.3783 356° North 164 189 8,000  Level Jacksonville Center
11:08AM 29.7644 -82.3878 349° North 158 182 8,000  Level Jacksonville Center
11:09AM 29.8083 -82.3994 347° North 158 182 8,000  Level Jacksonville Center
11:10AM 29.8522 -82.4064 352° North 158 182 8,000  Level Jacksonville Center
11:11AM 29.8961 -82.4158 349° North 158 182 8,000  Level Jacksonville Center
11:12AM 29.9400 -82.4275 347° North 158 182 8,000  Level Jacksonville Center
11:13AM 29.9839 -82.4344 352° North 158 182 8,000  Level Jacksonville Center
11:14AM 30.0319 -82.4464 348° North 164 189 8,000  Level Jacksonville Center
11:15AM 30.0736 -82.4558 349° North 164 189 8,000  Level Jacksonville Center
11:16AM 30.1175 -82.4675 347° North 164 189 8,000  Level Jacksonville Center
11:17AM 30.1614 -82.4769 349° North 164 189 8,000  Level Jacksonville Center
11:18AM 30.2033 -82.4839 352° North 159 183 8,000  Level Jacksonville Center
11:19AM 30.2408 -82.4911 351° North 159 183 8,000  Level Jacksonville Center
11:20AM 30.2847 -82.5028 347° North 159 183 8,000  Level Jacksonville Center
11:21AM 30.3286 -82.5147 347° North 159 183 8,000  Level Jacksonville Center
11:22AM 30.3744 -82.5242 350° North 159 183 8,000  Level Jacksonville Center
11:23AM 30.4164 -82.5314 352° North 159 183 8,000  Level Jacksonville Center
11:24AM 30.4581 -82.5408 349° North 159 183 8,000  Level Jacksonville Center
11:24AM 30.4769 -82.5481 342° North 158 182 8,000  Level Jacksonville Center
11:25AM 30.5019 -82.5525 351° North 159 183 8,000  Level Jacksonville Center
11:25AM 30.5186 -82.5550 353° North 158 182 8,000  Level Jacksonville Center
11:26AM 30.5481 -82.5547 360° North 159 183 8,000  Level Jacksonville Center
11:26AM 30.5647 -82.5572 353° North 158 182 8,000  Level Jacksonville Center
11:27AM 30.5897 -82.5644 346° North 159 183 8,000  Level Jacksonville Center
11:27AM 30.6128 -82.5667 355° North 162 186 8,000  Level Jacksonville Center
11:28AM 30.6356 -82.5692 355° North 159 183 8,000  Level Jacksonville Center
11:28AM 30.6544 -82.5739 348° North 161 185 8,000  Level Jacksonville Center
11:29AM 30.6794 -82.5761 356° North 159 183 8,000  Level Jacksonville Center
11:29AM 30.7006 -82.5786 354° North 160 184 8,000  Level Jacksonville Center
11:30AM 30.7256 -82.5808 356° North 159 183 8,000 -120 Level Jacksonville Center
11:30AM 30.7528 -82.5856 352° North 164 189 7,900 -120 Descending Jacksonville Center
11:31AM 30.7694 -82.5881 353° North 159 183 7,900  Level Jacksonville Center
11:31AM 30.7964 -82.5903 356° North 164 189 7,900  Level Jacksonville Center
11:32AM 30.8153 -82.5925 354° North 164 189 7,900  Level Jacksonville Center
11:32AM 30.8425 -82.5975 351° North 161 185 7,900  Level Jacksonville Center
11:33AM 30.8592 -82.5972 North 164 189 7,900  Level Jacksonville Center
11:33AM 30.8864 -82.6019 352° North 160 184 7,900  Level Jacksonville Center
11:34AM 30.9050 -82.6044 353° North 164 189 7,900  Level Jacksonville Center
11:34AM 30.9322 -82.6092 352° North 163 188 7,900 60 Level Jacksonville Center
11:35AM 30.9489 -82.6092 360° North 164 189 8,000 360 Climbing Jacksonville Center
11:35AM 30.9761 -82.6114 356° North 159 183 8,300 480 Climbing Jacksonville Center
11:36AM 30.9867 -82.6164 338° Northwest 159 183 8,500 360 Climbing Jacksonville Center
11:36AM 31.0136 -82.6186 356° North 144 166 8,700 300 Climbing Jacksonville Center
11:37AM 31.0261 -82.6211 350° North 149 171 8,800 300 Climbing Jacksonville Center
11:37AM 31.0514 -82.6233 356° North 141 162 9,000 300 Climbing Jacksonville Center
11:38AM 31.0658 -82.6281 344° North 142 163 9,100 240 Climbing Jacksonville Center
11:38AM 31.0931 -82.6281 360° North 142 163 9,300 300 Climbing Jacksonville Center
11:39AM 31.1056 -82.6331 341° North 142 163 9,400 300 Climbing Jacksonville Center
11:40AM 31.1347 -82.6353 356° North 136 157 9,700 300 Climbing Jacksonville Center
11:40AM 31.1411 -82.6403 326° Northwest 142 163 9,700 300 Level Jacksonville Center
11:41AM 31.1683 -82.6400 North 130 150 10,000 300 Climbing Jacksonville Center
11:41AM 31.1786 -82.6400 360° North 142 163 10,000  Level Jacksonville Center
11:42AM 31.2122 -82.6447 353° North 134 154 10,000  Level Jacksonville Center
11:42AM 31.2183 -82.6472 341° North 142 163 10,000  Level Jacksonville Center
11:43AM 31.2539 -82.6519 354° North 144 166 10,000  Level Jacksonville Center
11:43AM 31.2603 -82.6519 360° North 142 163 10,000 -120 Level Jacksonville Center
11:44AM 31.3019 -82.6544 357° North 142 163 9,900 -60 Descending Jacksonville Center
11:45AM 31.3353 -82.6614 350° North 148 170 9,900  Level Jacksonville Center
11:45AM 31.3394 -82.6614 360° North 142 163 9,900  Level Jacksonville Center
11:46AM 31.3731 -82.6686 350° North 143 165 9,900  Level Jacksonville Center
11:46AM 31.3814 -82.6664 13° North 142 163 9,900  Level Jacksonville Center
11:47AM 31.4125 -82.6736 349° North 143 165 9,900  Level Jacksonville Center
11:47AM 31.4189 -82.6711 18° North 142 163 9,900  Level Jacksonville Center
11:48AM 31.4503 -82.6783 349° North 141 162 9,900  Level Jacksonville Center
11:48AM 31.4586 -82.6783 360° North 142 163 9,900  Level Jacksonville Center
11:49AM 31.4919 -82.6856 350° North 144 166 9,900  Level Jacksonville Center
11:49AM 31.4983 -82.6831 18° North 142 163 9,900  Level Jacksonville Center
11:50AM 31.5317 -82.6878 353° North 144 166 9,900  Level Jacksonville Center
11:50AM 31.5381 -82.6878 360° North 142 163 9,900  Level Jacksonville Center
11:51AM 31.5714 -82.6903 356° North 137 158 9,900  Level Jacksonville Center
11:51AM 31.5775 -82.6925 343° North 142 163 9,900  Level Jacksonville Center
11:52AM 31.6153 -82.7022 348° North 148 170 9,900  Level Jacksonville Center
11:52AM 31.6194 -82.6975 44° Northeast 142 163 9,900  Level Jacksonville Center
11:53AM 31.6528 -82.7047 350° North 143 165 9,900  Level Jacksonville Center
11:53AM 31.6592 -82.7047 360° North 142 163 9,900  Level Jacksonville Center
11:54AM 31.6944 -82.7094 354° North 146 168 9,900  Level Jacksonville Center
11:54AM 31.6986 -82.7119 333° Northwest 142 163 9,900  Level Jacksonville Center
11:55AM 31.7364 -82.7142 357° North 148 170 9,900  Level Jacksonville Center
11:55AM 31.7406 -82.7142 360° North 142 163 9,900  Level Jacksonville Center
11:56AM 31.7803 -82.7214 351° North 150 173 9,900  Level Jacksonville Center
11:56AM 31.7803 -82.7192 90° East 142 163 9,900  Level Jacksonville Center
11:57AM 31.8239 -82.7264 352° North 147 169 9,900  Level Jacksonville Center
11:58AM 31.8636 -82.7311 354° North 147 169 9,900  Level Jacksonville Center
11:59AM 31.9097 -82.7383 352° North 147 169 9,900  Level Jacksonville Center
12:00PM 31.9494 -82.7433 354° North 147 169 9,900  Level Jacksonville Center
12:01PM 31.9911 -82.7481 355° North 147 169 9,900  Level Jacksonville Center
12:02PM 32.0350 -82.7553 352° North 147 169 9,900  Level Jacksonville Center
12:03PM 32.0789 -82.7625 352° North 147 169 9,900  Level Jacksonville Center
12:05PM 32.1667 -82.7667 358° North 151 174 10,000  Climbing Atlanta TRACON
12:06PM 32.2167 -82.7833 344° North 151 174 9,900  Descending Atlanta TRACON
12:07PM 32.2500 -82.7833 360° North 150 173 10,000  Climbing Atlanta TRACON
12:08PM 32.2833 -82.7833 360° North 154 177 10,000  Level Atlanta TRACON
12:09PM 32.3333 -82.8000 344° North 153 176 10,000  Level Atlanta TRACON
12:10PM 32.3833 -82.8000 360° North 155 178 10,000  Level Atlanta TRACON
12:11PM 32.4167 -82.8000 360° North 156 180 10,000  Level Atlanta TRACON
12:12PM 32.4667 -82.8167 344° North 155 178 10,000  Level Atlanta TRACON
12:13PM 32.5000 -82.8167 360° North 157 181 10,000  Level Atlanta TRACON
12:14PM 32.5500 -82.8333 344° North 154 177 10,000  Level Atlanta TRACON
12:15PM 32.5833 -82.8333 360° North 152 175 10,000  Level Atlanta TRACON
12:16PM 32.6333 -82.8500 344° North 152 175 10,000  Level Atlanta TRACON
12:17PM 32.6667 -82.8667 337° Northwest 151 174 10,000  Level Atlanta TRACON
12:18PM 32.7000 -82.8833 337° Northwest 148 170 10,000  Level Atlanta TRACON
12:19PM 32.7500 -82.9000 344° North 147 169 10,000  Level Atlanta TRACON
12:20PM 32.7833 -82.9167 337° Northwest 149 171 10,000  Level Atlanta TRACON
12:21PM 32.8167 -82.9500 320° Northwest 150 173 10,000  Level Atlanta TRACON
12:22PM 32.8500 -82.9667 337° Northwest 147 169 10,000  Level Atlanta TRACON
12:23PM 32.9000 -82.9833 344° North 149 171 10,000  Level Atlanta TRACON
12:24PM 32.9333 -83.0000 337° Northwest 148 170 10,000  Level Atlanta TRACON
12:25PM 32.9667 -83.0167 337° Northwest 147 169 10,000  Level Atlanta TRACON
12:26PM 33.0167 -83.0333 344° North 148 170 10,000  Level Atlanta TRACON
12:27PM 33.0500 -83.0500 337° Northwest 148 170 10,000  Level Atlanta TRACON
12:28PM 33.0833 -83.0667 337° Northwest 147 169 10,000  Level Atlanta TRACON
12:29PM 33.1333 -83.0833 344° North 148 170 10,000  Level Atlanta TRACON
12:30PM 33.1667 -83.1000 337° Northwest 149 171 10,000  Level Atlanta TRACON
12:31PM 33.2000 -83.1167 337° Northwest 147 169 10,000  Level Atlanta TRACON
12:32PM 33.2500 -83.1333 344° North 149 171 10,000  Level Atlanta TRACON
12:33PM 33.2833 -83.1500 337° Northwest 146 168 10,000  Level Atlanta TRACON
12:34PM 33.3167 -83.1667 337° Northwest 149 171 10,000  Level Atlanta TRACON
12:35PM 33.3500 -83.1833 337° Northwest 148 170 10,000  Level Atlanta TRACON
12:36PM 33.4000 -83.2000 344° North 146 168 10,000  Level Atlanta TRACON
12:37PM 33.4333 -83.2167 337° Northwest 146 168 10,000  Level Atlanta TRACON
12:38PM 33.4667 -83.2333 337° Northwest 148 170 10,000  Level Atlanta TRACON
12:39PM 33.5167 -83.2500 344° North 148 170 10,000  Level Atlanta TRACON
12:40PM 33.5500 -83.2667 337° Northwest 147 169 10,000  Level Atlanta TRACON
12:41PM 33.5833 -83.2833 337° Northwest 147 169 10,000  Level Atlanta TRACON
12:42PM 33.6167 -83.3000 337° Northwest 147 169 10,000  Level Atlanta TRACON
12:43PM 33.6667 -83.3167 344° North 148 170 10,000  Level Atlanta TRACON
12:44PM 33.7000 -83.3333 337° Northwest 147 169 10,000  Level Atlanta TRACON
12:45PM 33.7333 -83.3500 337° Northwest 147 169 10,000  Level Atlanta TRACON
12:46PM 33.7833 -83.3667 345° North 150 173 10,000  Level Atlanta TRACON
12:47PM 33.8167 -83.4000 320° Northwest 151 174 10,000  Level Atlanta TRACON
12:48PM 33.8500 -83.4167 337° Northwest 152 175 10,000  Level Atlanta TRACON
12:49PM 33.9000 -83.4333 345° North 154 177 10,000  Level Atlanta TRACON
12:49PM 33.9242 -83.4381 351° North 154 177 10,000  Level Atlanta Center
12:50PM 33.9578 -83.4578 334° Northwest 154 177 10,000  Level Atlanta Center
12:51PM 33.9933 -83.4725 341° North 154 177 10,000  Level Atlanta Center
12:52PM 34.0308 -83.4922 336° Northwest 154 177 10,000  Level Atlanta Center
12:53PM 34.0708 -83.5097 340° North 154 177 10,000  Level Atlanta Center
12:54PM 34.1125 -83.5294 339° North 149 171 10,000  Level Atlanta Center
12:55PM 34.1544 -83.5467 341° North 155 178 10,000  Level Atlanta Center
12:56PM 34.1961 -83.5667 338° Northwest 155 178 10,000  Level Atlanta Center
12:57PM 34.2358 -83.5839 340° North 150 173 10,000  Level Atlanta Center
12:58PM 34.2736 -83.6014 339° North 157 181 10,000  Level Atlanta Center
12:59PM 34.3175 -83.6214 339° North 157 181 10,000  Level Atlanta Center
01:00PM 34.3531 -83.6361 341° North 151 174 10,000  Level Atlanta Center
01:01PM 34.3928 -83.6561 337° Northwest 151 174 10,000  Level Atlanta Center
01:02PM 34.4303 -83.6736 339° North 151 174 10,000  Level Atlanta Center
01:03PM 34.4700 -83.6936 337° Northwest 151 174 10,000  Level Atlanta Center
01:04PM 34.5117 -83.7086 343° North 150 173 10,000  Level Atlanta Center
01:05PM 34.5514 -83.7286 337° Northwest 159 183 10,000  Level Atlanta Center
01:06PM 34.5892 -83.7461 339° North 152 175 10,000  Level Atlanta Center
01:07PM 34.6289 -83.7636 340° North 152 175 10,000  Level Atlanta Center
01:08PM 34.6706 -83.7836 338° Northwest 152 175 10,000  Level Atlanta Center
01:09PM 34.7144 -83.8064 337° Northwest 152 175 10,000  Level Atlanta Center
01:10PM 34.7542 -83.8239 340° North 157 181 10,000  Level Atlanta Center
01:11PM 34.7981 -83.8289 355° North 152 175 10,000  Level Atlanta Center
01:12PM 34.8417 -83.8311 358° North 152 175 10,000  Level Atlanta Center
01:14PM 34.8861 -83.8345 356° North  Level FlightAware Approximate
01:14PM 34.9336 -83.8489 356° North 164 189 10,000  Level Atlanta Center
01:15PM 34.9794 -83.8536 355° North 164 189 10,000  Level Atlanta Center
01:16PM 35.0256 -83.8586 355° North 164 189 10,000 -60 Level Atlanta Center
01:17PM 35.0692 -83.8661 352° North 164 189 9,900  Descending Atlanta Center
01:18PM 35.1131 -83.8686 357° North 164 189 10,000  Climbing Atlanta Center
01:19PM 35.1589 -83.8736 355° North 164 189 10,000  Level Atlanta Center
01:20PM 35.2050 -83.8811 352° North 164 189 10,000  Level Atlanta Center
01:21PM 35.2467 -83.8861 354° North 157 181 10,000  Level Atlanta Center
01:22PM 35.2906 -83.8911 355° North 157 181 10,000  Level Atlanta Center
01:23PM 35.3344 -83.8961 355° North 157 181 10,100  Climbing Atlanta Center
01:24PM 35.3803 -83.9036 352° North 162 186 10,100  Level Atlanta Center
01:25PM 35.4242 -83.9061 357° North 162 186 10,100 -60 Level Atlanta Center
01:26PM 35.4678 -83.9139 352° North 162 186 10,000 -60 Descending Atlanta Center
01:27PM 35.5117 -83.9189 355° North 162 186 10,000  Level Atlanta Center
01:28PM 35.5533 -83.9214 357° North 162 186 10,000  Level Atlanta Center
01:29PM 35.5972 -83.9289 352° North 162 186 10,000  Level Atlanta Center
01:31PM 35.6417 -83.9333 355° North  Level FlightAware Approximate
01:38PM 35.9385 -83.9625 355° North  Level FlightAware Approximate
01:39PM 35.9809 -83.9667 355° North  Level FlightAware Approximate
01:40PM 36.0232 -83.9708 355° North  Level FlightAware Approximate
01:41PM 36.0656 -83.9750 355° North  Level FlightAware Approximate
01:42PM 36.1080 -83.9792 355° North  Level FlightAware Approximate
01:42PM 36.1167 -83.9900 356° North 157 181 10,000  Level Atlanta Center
01:43PM 36.1504 -83.9835 355° North  Level FlightAware Approximate
01:43PM 36.1583 -83.9950 354° North 157 181 10,000  Level Atlanta Center
01:44PM 36.1928 -83.9877 355° North  Level FlightAware Approximate
01:44PM 36.1947 -83.9967 358° North 153 176 9,900  Level Indianapolis Center
01:45PM 36.2352 -83.9919 355° North  Level FlightAware Approximate
01:45PM 36.2358 -84.0028 353° North 153 176 9,900  Level Indianapolis Center
01:46PM 36.2776 -83.9961 355° North  Level FlightAware Approximate
01:46PM 36.2769 -84.0069 355° North 150 173 9,900  Level Indianapolis Center
01:47PM 36.3201 -84.0003 356° North  Level FlightAware Approximate
01:47PM 36.3269 -84.0131 354° North 150 173 9,900  Level Indianapolis Center
01:48PM 36.3686 -84.0181 354° North 149 171 9,900  Level Indianapolis Center
01:49PM 36.4097 -84.0231 354° North 149 171 9,900  Level Indianapolis Center
01:50PM 36.4531 -84.0289 354° North 153 176 9,900  Level Indianapolis Center
01:51PM 36.4967 -84.0342 354° North 156 180 9,900  Level Indianapolis Center
01:52PM 36.5394 -84.0400 354° North 152 175 9,900  Level Indianapolis Center
01:53PM 36.5825 -84.0447 355° North 154 177 9,900  Level Indianapolis Center
01:54PM 36.6333 -84.0519 353° North 156 180 9,900  Level Indianapolis Center
01:55PM 36.6758 -84.0564 355° North 154 177 9,900  Level Indianapolis Center
01:56PM 36.7203 -84.0619 354° North 157 181 9,900  Level Indianapolis Center
01:57PM 36.7642 -84.0683 353° North 157 181 9,900  Level Indianapolis Center
01:58PM 36.8064 -84.0736 354° North 154 177 9,900  Level Indianapolis Center
01:59PM 36.8475 -84.0786 354° North 149 171 9,900  Level Indianapolis Center
02:00PM 36.8981 -84.0847 354° North 154 177 9,900  Level Indianapolis Center
02:01PM 36.9406 -84.0897 355° North 153 176 9,900  Level Indianapolis Center
02:02PM 36.9839 -84.0950 354° North 154 177 10,000  Climbing Indianapolis Center
02:03PM 37.0247 -84.1000 354° North 151 174 10,000  Level Indianapolis Center
02:04PM 37.0669 -84.1053 354° North 151 174 10,000  Level Indianapolis Center
02:05PM 37.1097 -84.1097 355° North 152 175 10,000  Level Indianapolis Center
02:06PM 37.1581 -84.1156 355° North 151 174 10,000  Level Indianapolis Center
02:07PM 37.2000 -84.1211 354° North 151 174 10,000  Level Indianapolis Center
02:08PM 37.2411 -84.1269 354° North 149 171 10,000  Level Indianapolis Center
02:09PM 37.2819 -84.1319 354° North 148 170 10,000 -60 Level Indianapolis Center
02:10PM 37.3242 -84.1372 354° North 150 173 9,900 -180 Descending Indianapolis Center
02:11PM 37.3678 -84.1442 353° North 154 177 9,700 -300 Descending Indianapolis Center
02:12PM 37.4228 -84.1500 355° North 165 190 9,400 -300 Descending Indianapolis Center
02:13PM 37.4697 -84.1553 355° North 168 193 9,200 -300 Descending Indianapolis Center
02:14PM 37.5194 -84.1619 354° North 174 200 8,900 -300 Descending Indianapolis Center
02:16PM 37.5621 -84.1675 354° North  Level FlightAware Approximate
02:17PM 37.6197 -84.1747 354° North 181 208 8,300  Level Indianapolis Center
02:18PM 37.6706 -84.1814 354° North 182 209 8,100 -300 Descending Indianapolis Center
02:19PM 37.7297 -84.1883 355° North 183 211 7,700 -300 Descending Indianapolis Center
02:20PM 37.7806 -84.1947 354° North 182 209 7,500 -300 Descending Indianapolis Center
02:21PM 37.8319 -84.2022 353° North 184 212 7,200 -300 Descending Indianapolis Center
02:22PM 37.8833 -84.2081 355° North 185 213 6,900 -300 Descending Indianapolis Center
02:23PM 37.9342 -84.2150 354° North 183 211 6,600 -360 Descending Indianapolis Center
02:24PM 37.9947 -84.2217 355° North 185 213 6,200 -300 Descending Indianapolis Center
02:25PM 38.0469 -84.2281 354° North 187 215 6,000 -120 Descending Indianapolis Center
02:26PM 38.0975 -84.2333 355° North 185 213 6,000  Level Indianapolis Center
02:27PM 38.1461 -84.2394 354° North 181 208 6,000  Level Indianapolis Center
02:28PM 38.1953 -84.2478 352° North 178 205 6,000  Level Indianapolis Center
02:29PM 38.2436 -84.2542 354° North 177 204 6,000  Level Indianapolis Center
02:30PM 38.3011 -84.2611 355° North 176 203 6,000  Level Indianapolis Center
02:31PM 38.3494 -84.2672 354° North 175 201 6,000  Level Indianapolis Center
02:32PM 38.3983 -84.2733 354° North 175 201 6,000  Level Indianapolis Center
02:33PM 38.4456 -84.2806 353° North 172 198 6,100  Climbing Indianapolis Center
02:34PM 38.4919 -84.2908 350° North 170 196 6,100  Level Indianapolis Center
02:35PM 38.5389 -84.2992 352° North 171 197 6,100  Level Indianapolis Center
02:36PM 38.5931 -84.3106 351° North 169 194 6,100 -180 Level Indianapolis Center
02:37PM 38.6397 -84.3228 348° North 170 196 5,800 -360 Descending Indianapolis Center
02:38PM 38.6908 -84.3311 353° North 177 204 5,400 -360 Descending Indianapolis Center
02:39PM 38.7411 -84.3408 351° North 182 209 5,100 -300 Descending Indianapolis Center
02:40PM 38.7908 -84.3522 350° North 182 209 4,800 -300 Descending Indianapolis Center
02:41PM 38.8411 -84.3625 351° North 182 209 4,500 -300 Descending Indianapolis Center
02:42PM 38.8917 -84.3719 352° North 183 211 4,200 -360 Descending Indianapolis Center
02:43PM 38.9514 -84.3772 356° North 182 209 3,800 -540 Descending Indianapolis Center
02:44PM 38.9989 -84.3786 359° North 179 206 3,200 -600 Descending Indianapolis Center
02:47PM 39.1000 -84.3667 North 140 161 1,900 -600 Descending Cincinnati TRACON
02:48PM 39.1333 -84.3833 339° North 112 129 1,300 -600 Descending Cincinnati TRACON
02:50PM 39.1000 -84.4167 218° Southwest  Level FlightAware Approximate